createdAt,value
2018-12-06T00:00:17.108Z,13.30
2018-12-06T00:02:47.619Z,12.93
2018-12-06T00:05:18.862Z,12.95
2018-12-06T00:08:06.227Z,13.20
2018-12-06T00:10:36.863Z,12.60
2018-12-06T00:13:09.051Z,12.82
2018-12-06T00:15:40.065Z,13.05
2018-12-06T00:18:10.616Z,12.60
2018-12-06T00:20:52.564Z,11.33
2018-12-06T02:00:33.181Z,11.08
2018-12-06T02:03:10.855Z,10.45
2018-12-06T02:05:46.301Z,10.90
2018-12-06T02:08:22.549Z,10.85
2018-12-06T02:10:59.393Z,10.03
2018-12-06T02:13:37.076Z,11.45
2018-12-06T02:19:14.778Z,11.38
2018-12-06T02:21:46.227Z,10.55
2018-12-06T02:24:19.966Z,12.70
2018-12-06T02:26:50.741Z,11.50
2018-12-06T02:29:25.975Z,13.20
2018-12-06T02:31:59.208Z,11.00
2018-12-06T02:37:12.757Z,12.23
2018-12-06T02:39:45.443Z,10.00
2018-12-06T02:42:18.525Z,10.60
2018-12-06T02:44:50.329Z,10.60
2018-12-06T02:47:20.822Z,9.90
2018-12-06T02:49:51.443Z,11.18
2018-12-06T02:52:24.589Z,10.93
2018-12-06T02:55:01.111Z,10.30
2018-12-06T02:57:37.663Z,11.30
2018-12-06T03:00:17.158Z,9.60
2018-12-06T03:03:04.365Z,11.30
2018-12-06T03:05:38.763Z,10.23
2018-12-06T03:08:14.317Z,7.90
2018-12-06T03:10:47.211Z,7.85
2018-12-06T03:13:22.632Z,8.78
2018-12-06T03:16:09.478Z,8.60
2018-12-06T03:18:59.490Z,7.50
2018-12-06T03:21:41.372Z,8.53
2018-12-06T04:27:11.809Z,11.75
2018-12-06T04:29:42.739Z,10.58
2018-12-06T04:32:13.782Z,9.88
2018-12-06T04:34:51.671Z,10.13
2018-12-06T04:37:22.984Z,9.05
2018-12-06T04:40:00.229Z,9.00
2018-12-06T04:42:38.493Z,9.05
2018-12-06T04:48:42.770Z,9.20
2018-12-06T05:07:37.888Z,7.37
2018-12-06T05:10:15.929Z,7.72
2018-12-06T05:12:50.820Z,8.65
2018-12-06T05:18:23.132Z,8.65
2018-12-06T05:20:54.251Z,7.87
2018-12-06T05:23:27.552Z,7.75
2018-12-06T05:26:15.332Z,8.18
2018-12-06T05:28:47.984Z,9.20
2018-12-06T05:31:27.873Z,10.78
2018-12-06T05:34:23.557Z,9.75
2018-12-06T05:36:59.271Z,8.93
2018-12-06T05:41:20.430Z,9.33
2018-12-06T05:44:00.882Z,8.95
2018-12-06T05:46:36.424Z,9.35
2018-12-06T05:49:50.305Z,8.75
2018-12-06T05:52:52.957Z,9.38
2018-12-06T05:56:46.219Z,8.05
2018-12-06T06:15:40.497Z,8.98
2018-12-06T06:18:11.128Z,9.15
2018-12-06T06:20:42.561Z,10.25
2018-12-06T06:23:13.125Z,9.50
2018-12-06T06:25:44.058Z,9.20
2018-12-06T06:28:17.733Z,8.80
2018-12-06T06:30:48.309Z,8.90
2018-12-06T06:33:18.727Z,9.53
2018-12-06T06:35:49.012Z,8.28
2018-12-06T06:38:20.327Z,8.63
2018-12-06T06:40:50.591Z,8.78
2018-12-06T06:43:20.851Z,9.40
2018-12-06T06:45:51.199Z,8.73
2018-12-06T06:48:21.638Z,9.90
2018-12-06T06:50:53.651Z,10.88
2018-12-06T06:53:24.259Z,9.18
2018-12-06T06:55:54.738Z,9.70
2018-12-06T06:58:25.078Z,8.65
2018-12-06T07:00:56.173Z,9.38
2018-12-06T07:03:26.570Z,8.83
2018-12-06T07:05:56.939Z,9.45
2018-12-06T07:08:27.394Z,8.28
2018-12-06T07:10:57.976Z,8.55
2018-12-06T07:13:30.076Z,7.35
2018-12-06T07:16:00.514Z,8.25
2018-12-06T07:18:31.094Z,8.28
2018-12-06T07:21:01.971Z,7.30
2018-12-06T07:23:32.372Z,9.30
2018-12-06T07:26:02.975Z,8.35
2018-12-06T07:28:33.372Z,8.50
2018-12-06T07:31:04.536Z,7.55
2018-12-06T07:33:35.147Z,7.85
2018-12-06T07:36:05.832Z,9.35
2018-12-06T07:38:36.405Z,7.67
2018-12-06T07:41:07.785Z,7.92
2018-12-06T07:43:38.196Z,7.92
2018-12-06T07:46:10.445Z,9.05
2018-12-06T07:48:40.902Z,8.68
2018-12-06T07:51:18.646Z,7.72
2018-12-06T07:53:49.310Z,7.67
2018-12-06T07:56:20.655Z,8.83
2018-12-06T07:58:51.509Z,7.62
2018-12-06T08:01:22.075Z,7.60
2018-12-06T08:03:52.857Z,8.20
2018-12-06T08:06:23.176Z,8.70
2018-12-06T08:08:54.310Z,7.87
2018-12-06T08:11:24.756Z,7.95
2018-12-06T08:13:56.392Z,8.85
2018-12-06T08:16:26.937Z,8.30
2018-12-06T08:18:57.454Z,9.03
2018-12-06T08:21:27.995Z,8.08
2018-12-06T08:23:58.533Z,8.13
2018-12-06T08:26:29.768Z,7.12
2018-12-06T08:29:00.261Z,7.60
2018-12-06T08:31:31.408Z,6.83
2018-12-06T08:34:06.120Z,7.20
2018-12-06T08:36:34.716Z,7.10
2018-12-06T08:39:06.724Z,7.70
2018-12-06T08:41:37.590Z,6.65
2018-12-06T08:44:07.906Z,6.62
2018-12-06T08:46:38.274Z,7.08
2018-12-06T08:49:09.376Z,6.58
2018-12-06T08:51:40.078Z,6.75
2018-12-06T08:54:11.496Z,7.80
2018-12-06T08:56:41.727Z,6.97
2018-12-06T08:59:12.138Z,6.80
2018-12-06T09:01:43.195Z,5.95
2018-12-06T09:04:16.459Z,4.85
2018-12-06T09:06:47.800Z,4.83
2018-12-06T09:09:19.143Z,6.20
2018-12-06T09:11:50.245Z,6.05
2018-12-06T09:14:20.508Z,6.20
2018-12-06T09:16:50.831Z,5.42
2018-12-06T09:19:21.264Z,5.47
2018-12-06T09:21:51.692Z,4.97
2018-12-06T09:24:21.950Z,5.00
2018-12-06T09:26:58.771Z,4.72
2018-12-06T09:29:24.738Z,4.87
2018-12-06T09:31:59.386Z,4.70
2018-12-06T09:34:31.948Z,3.98
2018-12-06T09:37:03.616Z,5.20
2018-12-06T09:39:34.003Z,4.60
2018-12-06T09:42:05.146Z,4.83
2018-12-06T09:44:35.669Z,3.98
2018-12-06T09:47:06.579Z,4.72
2018-12-06T09:49:37.976Z,4.45
2018-12-06T09:52:08.487Z,4.12
2018-12-06T09:54:38.922Z,3.77
2018-12-06T09:57:10.246Z,4.45
2018-12-06T09:59:40.685Z,4.25
2018-12-06T10:02:11.184Z,4.65
2018-12-06T10:04:42.692Z,4.10
2018-12-06T10:07:13.229Z,4.03
2018-12-06T10:09:44.462Z,3.77
2018-12-06T10:12:15.873Z,3.92
2018-12-06T10:14:47.320Z,4.12
2018-12-06T10:17:18.351Z,3.35
2018-12-06T10:19:48.715Z,4.00
2018-12-06T10:22:19.091Z,3.65
2018-12-06T10:24:49.535Z,3.10
2018-12-06T10:27:20.008Z,3.10
2018-12-06T10:29:50.925Z,3.52
2018-12-06T10:32:21.209Z,2.95
2018-12-06T10:34:53.590Z,3.50
2018-12-06T10:37:23.997Z,3.20
2018-12-06T10:39:54.658Z,3.35
2018-12-06T10:42:25.327Z,2.45
2018-12-06T10:44:57.434Z,2.15
2018-12-06T10:47:27.863Z,3.15
2018-12-06T10:49:58.372Z,3.08
2018-12-06T10:52:29.338Z,3.80
2018-12-06T10:54:59.819Z,3.17
2018-12-06T10:57:30.268Z,3.10
2018-12-06T11:00:00.795Z,3.10
2018-12-06T11:02:37.548Z,2.45
2018-12-06T11:05:09.685Z,3.17
2018-12-06T11:07:40.552Z,3.20
2018-12-06T11:10:12.553Z,3.50
2018-12-06T11:12:43.001Z,2.98
2018-12-06T11:15:13.595Z,3.70
2018-12-06T11:17:44.317Z,3.27
2018-12-06T11:20:15.356Z,3.75
2018-12-06T11:22:46.007Z,3.20
2018-12-06T11:25:17.343Z,3.10
2018-12-06T11:27:48.382Z,2.60
2018-12-06T11:30:18.897Z,2.75
2018-12-06T11:32:49.405Z,2.98
2018-12-06T11:35:20.684Z,2.90
2018-12-06T11:37:52.029Z,3.08
2018-12-06T11:40:22.420Z,3.72
2018-12-06T11:42:53.888Z,2.70
2018-12-06T11:45:25.391Z,2.85
2018-12-06T11:47:56.762Z,3.12
2018-12-06T11:50:28.165Z,3.75
2018-12-06T11:52:58.573Z,2.00
2018-12-06T11:55:29.123Z,2.40
2018-12-06T11:58:00.686Z,2.42
2018-12-06T12:00:31.810Z,2.35
2018-12-06T12:03:02.265Z,2.40
2018-12-06T12:05:32.599Z,2.60
2018-12-06T12:08:02.978Z,2.25
2018-12-06T12:10:33.348Z,3.40
2018-12-06T12:13:03.704Z,2.42
2018-12-06T12:15:41.554Z,3.10
2018-12-06T12:18:13.750Z,2.70
2018-12-06T12:20:44.217Z,2.40
2018-12-06T12:23:16.767Z,2.37
2018-12-06T12:25:48.016Z,2.30
2018-12-06T12:28:19.493Z,2.30
2018-12-06T12:30:49.847Z,2.42
2018-12-06T12:33:20.728Z,2.08
2018-12-06T12:35:51.927Z,2.27
2018-12-06T12:38:22.979Z,2.35
2018-12-06T12:40:53.303Z,2.70
2018-12-06T12:43:23.632Z,2.55
2018-12-06T12:45:53.957Z,2.20
2018-12-06T12:48:24.826Z,2.50
2018-12-06T12:50:56.549Z,2.92
2018-12-06T12:53:29.336Z,2.35
2018-12-06T12:55:59.759Z,2.45
2018-12-06T12:58:30.079Z,1.92
2018-12-06T13:01:01.807Z,1.85
2018-12-06T13:03:32.575Z,3.75
2018-12-06T13:06:03.069Z,2.30
2018-12-06T13:08:33.542Z,1.85
2018-12-06T13:11:04.101Z,1.80
2018-12-06T13:13:36.263Z,2.17
2018-12-06T13:16:07.387Z,1.75
2018-12-06T13:18:38.820Z,2.08
2018-12-06T13:21:09.367Z,1.95
2018-12-06T13:23:39.801Z,1.75
2018-12-06T13:26:11.451Z,2.22
2018-12-06T13:28:42.471Z,2.80
2018-12-06T13:31:12.978Z,1.72
2018-12-06T13:33:43.439Z,2.12
2018-12-06T13:36:14.927Z,1.85
2018-12-06T13:38:47.077Z,2.42
2018-12-06T13:41:17.655Z,3.00
2018-12-06T13:43:48.009Z,1.95
2018-12-06T13:46:20.219Z,2.55
2018-12-06T13:48:50.535Z,2.20
2018-12-06T13:51:21.510Z,2.10
2018-12-06T13:53:51.868Z,2.95
2018-12-06T13:56:23.425Z,1.90
2018-12-06T13:58:53.930Z,2.47
2018-12-06T14:01:24.878Z,1.90
2018-12-06T14:03:55.597Z,1.90
2018-12-06T14:06:27.191Z,2.10
2018-12-06T14:08:57.424Z,3.05
2018-12-06T14:11:27.651Z,2.40
2018-12-06T14:13:58.395Z,2.00
2018-12-06T14:16:28.686Z,2.10
2018-12-06T14:18:59.045Z,1.87
2018-12-06T14:21:30.312Z,2.77
2018-12-06T14:24:00.766Z,2.12
2018-12-06T14:26:31.256Z,3.58
2018-12-06T14:29:01.646Z,1.70
2018-12-06T14:31:32.935Z,2.35
2018-12-06T14:34:03.598Z,2.45
2018-12-06T14:36:33.977Z,2.27
2018-12-06T14:39:08.448Z,1.90
2018-12-06T14:41:39.578Z,1.98
2018-12-06T14:44:11.114Z,1.82
2018-12-06T14:46:41.444Z,1.75
2018-12-06T14:49:11.963Z,1.72
2018-12-06T14:51:42.344Z,2.52
2018-12-06T14:54:12.819Z,2.25
2018-12-06T14:56:43.704Z,2.60
2018-12-06T14:59:13.973Z,2.50
2018-12-06T15:01:45.756Z,2.35
2018-12-06T15:04:16.105Z,2.00
2018-12-06T15:06:46.531Z,1.80
2018-12-06T15:09:16.915Z,2.42
2018-12-06T15:11:47.839Z,2.27
2018-12-06T15:14:18.526Z,2.72
2018-12-06T15:16:49.015Z,2.83
2018-12-06T15:19:19.615Z,2.40
2018-12-06T15:21:51.332Z,2.12
2018-12-06T15:24:21.793Z,2.30
2018-12-06T15:26:52.319Z,2.40
2018-12-06T15:29:22.690Z,2.30
2018-12-06T15:31:53.060Z,2.60
2018-12-06T15:34:23.383Z,2.95
2018-12-06T15:36:54.032Z,3.05
2018-12-06T15:39:24.605Z,2.40
2018-12-06T15:41:55.067Z,2.70
2018-12-06T15:44:25.651Z,3.30
2018-12-06T15:46:57.147Z,3.45
2018-12-06T15:49:29.009Z,2.85
2018-12-06T15:52:00.123Z,3.17
2018-12-06T15:54:32.197Z,2.90
2018-12-06T15:57:02.742Z,3.20
2018-12-06T15:59:33.218Z,2.90
2018-12-06T16:02:05.784Z,3.20
2018-12-06T16:04:36.501Z,3.30
2018-12-06T16:07:07.102Z,3.55
2018-12-06T16:09:37.609Z,3.58
2018-12-06T16:12:08.225Z,4.72
2018-12-06T16:14:39.618Z,4.03
2018-12-06T16:17:10.243Z,3.55
2018-12-06T16:19:40.637Z,3.70
2018-12-06T16:22:13.825Z,3.60
2018-12-06T16:24:45.001Z,4.28
2018-12-06T16:27:15.324Z,3.45
2018-12-06T16:29:51.396Z,3.72
2018-12-06T16:32:18.951Z,4.20
2018-12-06T16:34:50.017Z,2.80
2018-12-06T16:37:20.440Z,3.33
2018-12-06T16:39:50.965Z,3.15
2018-12-06T16:42:22.415Z,2.60
2018-12-06T16:44:52.976Z,2.33
2018-12-06T16:47:23.735Z,1.82
2018-12-06T16:49:54.277Z,2.00
2018-12-06T16:52:26.288Z,2.05
2018-12-06T16:54:57.131Z,3.33
2018-12-06T16:57:28.865Z,2.55
2018-12-06T16:59:59.577Z,3.17
2018-12-06T17:02:30.869Z,5.03
2018-12-06T17:05:01.549Z,10.13
2018-12-06T17:07:34.595Z,5.53
2018-12-06T17:10:09.047Z,4.92
2018-12-06T17:12:39.664Z,4.45
2018-12-06T17:15:10.074Z,7.03
2018-12-06T17:17:41.981Z,6.20
2018-12-06T17:20:13.327Z,12.68
2018-12-06T17:22:43.973Z,4.15
2018-12-06T17:25:15.590Z,4.90
2018-12-06T17:27:46.155Z,3.60
2018-12-06T17:30:17.506Z,4.35
2018-12-06T17:32:48.184Z,5.87
2018-12-06T17:35:18.884Z,4.10
2018-12-06T17:37:50.339Z,4.45
2018-12-06T17:40:21.581Z,5.92
2018-12-06T17:42:54.041Z,5.35
2018-12-06T17:45:32.343Z,4.80
2018-12-06T17:48:03.222Z,5.65
2018-12-06T17:50:38.917Z,5.72
2018-12-06T17:53:12.905Z,4.00
2018-12-06T17:56:02.607Z,5.55
2018-12-06T17:58:34.609Z,5.00
2018-12-06T18:01:05.952Z,4.85
2018-12-06T18:03:37.444Z,4.83
2018-12-06T18:06:15.815Z,5.15
2018-12-06T18:08:53.372Z,5.40
2018-12-06T18:11:32.905Z,5.25
2018-12-06T18:17:02.622Z,3.90
2018-12-06T18:19:41.741Z,4.67
2018-12-06T18:22:12.629Z,4.72
2018-12-06T18:24:42.934Z,7.30
2018-12-06T18:27:14.154Z,6.60
2018-12-06T18:29:44.539Z,3.80
2018-12-06T18:32:15.246Z,5.20
2018-12-06T18:34:45.735Z,2.52
2018-12-06T18:37:16.441Z,3.87
2018-12-06T18:39:46.721Z,3.87
2018-12-06T18:42:17.496Z,3.33
2018-12-06T18:44:47.857Z,4.33
2018-12-06T18:47:18.258Z,5.83
2018-12-06T18:49:49.897Z,5.67
2018-12-06T18:52:20.594Z,5.67
2018-12-06T18:54:51.228Z,4.22
2018-12-06T18:57:22.874Z,6.20
2018-12-06T18:59:53.656Z,5.00
2018-12-06T19:02:24.293Z,4.90
2018-12-06T19:04:55.215Z,5.05
2018-12-06T19:07:25.923Z,5.15
2018-12-06T19:09:56.894Z,5.08
2018-12-06T19:12:28.231Z,4.75
2018-12-06T19:15:02.456Z,4.20
2018-12-06T19:17:33.671Z,6.53
2018-12-06T19:20:05.280Z,5.00
2018-12-06T19:22:36.739Z,4.85
2018-12-06T19:25:07.244Z,5.55
2018-12-06T19:27:38.530Z,5.85
2018-12-06T19:30:10.996Z,5.22
2018-12-06T19:32:42.760Z,5.10
2018-12-06T19:35:21.482Z,4.60
2018-12-06T19:37:53.742Z,4.58
2018-12-06T19:40:25.955Z,4.25
2018-12-06T19:49:00.721Z,3.10
2018-12-06T19:51:31.741Z,3.10
2018-12-06T19:54:02.876Z,4.22
2018-12-06T19:56:33.989Z,3.60
2018-12-06T19:59:12.474Z,3.70
2018-12-06T20:01:43.182Z,2.90
2018-12-06T20:04:18.424Z,16.12
2018-12-06T20:06:52.950Z,3.00
2018-12-06T20:09:24.826Z,3.40
2018-12-06T20:11:56.290Z,2.67
2018-12-06T20:17:40.393Z,2.00
2018-12-06T20:20:23.311Z,1.87
2018-12-06T20:22:51.974Z,2.45
2018-12-06T20:25:26.210Z,2.58
2018-12-06T20:27:58.600Z,2.60
2018-12-06T20:33:29.695Z,1.70
2018-12-06T20:36:01.268Z,2.25
2018-12-06T20:38:32.236Z,2.30
2018-12-06T20:41:03.531Z,2.20
2018-12-06T20:43:34.396Z,2.08
2018-12-06T20:46:04.924Z,3.00
2018-12-06T20:48:36.203Z,2.17
2018-12-06T20:51:07.150Z,3.58
2018-12-06T20:53:37.992Z,4.40
2018-12-06T20:56:08.778Z,3.92
2018-12-06T20:58:39.753Z,2.75
2018-12-06T21:01:12.391Z,2.33
2018-12-06T21:03:43.302Z,1.90
2018-12-06T21:06:14.627Z,2.12
2018-12-06T21:08:45.820Z,2.17
2018-12-06T21:11:17.878Z,2.40
2018-12-06T21:13:49.318Z,2.05
2018-12-06T21:18:56.773Z,2.80
2018-12-06T21:21:27.395Z,2.20
2018-12-06T21:23:59.931Z,1.60
2018-12-06T21:26:30.927Z,1.70
2018-12-06T21:29:06.838Z,1.60
2018-12-06T21:31:41.218Z,1.77
2018-12-06T21:34:17.273Z,2.15
2018-12-06T21:36:50.451Z,1.80
2018-12-06T21:39:27.457Z,1.67
2018-12-06T21:41:59.191Z,1.92
2018-12-06T21:44:30.284Z,1.72
2018-12-06T21:47:01.214Z,2.00
2018-12-06T21:49:31.855Z,2.02
2018-12-06T21:52:02.760Z,1.60
2018-12-06T21:54:34.811Z,2.20
2018-12-06T21:57:06.304Z,2.58
2018-12-06T21:59:37.969Z,2.10
2018-12-06T22:02:24.016Z,2.42
2018-12-06T22:04:54.888Z,3.42
2018-12-06T22:07:25.638Z,1.90
2018-12-06T22:09:56.189Z,2.50
2018-12-06T22:12:27.449Z,1.90
2018-12-06T22:14:58.059Z,1.90
2018-12-06T22:17:28.661Z,1.65
2018-12-06T22:20:00.192Z,10.32
2018-12-06T22:22:31.868Z,4.15
2018-12-06T22:25:02.704Z,4.40
2018-12-06T22:27:33.488Z,3.75
2018-12-06T22:30:05.184Z,12.25
2018-12-06T22:32:37.021Z,14.10
2018-12-06T22:35:08.804Z,2.30
2018-12-06T22:37:40.120Z,4.55
2018-12-06T22:40:11.189Z,10.65
2018-12-06T22:42:41.954Z,12.90
2018-12-06T22:46:26.167Z,3.90
2018-12-06T22:48:56.723Z,4.05
2018-12-06T22:51:27.480Z,2.12
2018-12-06T22:53:58.005Z,4.10
2018-12-06T22:56:28.672Z,2.77
2018-12-06T22:59:05.905Z,1.50
2018-12-06T23:01:47.302Z,1.50
2018-12-06T23:04:19.443Z,1.52
2018-12-06T23:22:44.744Z,1.42
2018-12-06T23:25:16.389Z,1.30
2018-12-06T23:27:46.877Z,1.30
2018-12-06T23:30:17.431Z,1.30
2018-12-06T23:32:48.269Z,1.70
2018-12-06T23:35:19.091Z,1.60
2018-12-06T23:37:50.120Z,0.90
2018-12-06T23:40:21.273Z,1.30
2018-12-06T23:42:52.401Z,1.45
2018-12-06T23:45:23.273Z,1.32
2018-12-06T23:47:54.464Z,1.10
2018-12-06T23:50:25.292Z,0.95
2018-12-06T23:52:57.189Z,1.17
2018-12-06T23:55:28.772Z,1.02
2018-12-06T23:58:00.625Z,1.20
